createdAt,value
2023-03-04T00:00:47.761Z,6.10
2023-03-04T00:03:15.949Z,6.00
2023-03-04T00:05:43.751Z,6.10
2023-03-04T00:08:11.723Z,6.00
2023-03-04T00:10:39.517Z,6.00
2023-03-04T00:13:07.291Z,6.00
2023-03-04T00:15:36.440Z,6.00
2023-03-04T00:18:04.525Z,5.80
2023-03-04T00:20:32.287Z,6.00
2023-03-04T00:22:59.978Z,5.90
2023-03-04T00:25:27.676Z,5.60
2023-03-04T00:27:55.368Z,5.40
2023-03-04T00:30:23.090Z,5.30
2023-03-04T00:32:52.266Z,5.60
2023-03-04T00:35:20.119Z,5.40
2023-03-04T00:37:47.925Z,5.50
2023-03-04T00:40:15.879Z,5.40
2023-03-04T00:42:43.561Z,5.50
2023-03-04T00:45:11.917Z,5.80
2023-03-04T00:47:39.598Z,5.80
2023-03-04T00:50:10.240Z,5.80
2023-03-04T00:52:37.933Z,5.90
2023-03-04T00:55:06.874Z,5.80
2023-03-04T00:57:34.548Z,5.70
2023-03-04T01:00:02.332Z,5.50
2023-03-04T01:02:30.181Z,5.50
2023-03-04T01:04:58.058Z,5.70
2023-03-04T01:07:27.158Z,5.40
2023-03-04T01:09:54.852Z,5.50
2023-03-04T01:12:22.550Z,5.50
2023-03-04T01:14:50.351Z,5.40
2023-03-04T01:17:18.205Z,5.70
2023-03-04T01:19:45.918Z,5.70
2023-03-04T01:22:15.098Z,5.70
2023-03-04T01:24:44.329Z,5.60
2023-03-04T01:27:12.381Z,5.40
2023-03-04T01:29:40.081Z,5.60
2023-03-04T01:32:07.855Z,5.80
2023-03-04T01:34:36.216Z,5.70
2023-03-04T01:37:03.932Z,5.80
2023-03-04T01:39:31.641Z,5.90
2023-03-04T01:42:00.733Z,5.80
2023-03-04T01:44:28.575Z,5.80
2023-03-04T01:46:57.230Z,5.70
2023-03-04T01:49:24.959Z,5.40
2023-03-04T01:51:54.705Z,5.40
2023-03-04T01:54:23.657Z,5.60
2023-03-04T01:56:52.629Z,5.50
2023-03-04T01:59:23.778Z,5.50
2023-03-04T02:01:54.351Z,5.40
2023-03-04T02:04:24.927Z,5.40
2023-03-04T02:06:53.287Z,5.30
2023-03-04T02:09:22.197Z,5.70
2023-03-04T02:11:51.295Z,5.70
2023-03-04T02:14:21.483Z,5.50
2023-03-04T02:16:49.769Z,5.60
2023-03-04T02:19:23.465Z,5.60
2023-03-04T02:21:51.209Z,5.70
2023-03-04T02:24:25.406Z,5.80
2023-03-04T02:26:54.602Z,5.90
2023-03-04T02:29:22.334Z,6.00
2023-03-04T02:31:51.866Z,5.90
2023-03-04T02:34:21.980Z,5.80
2023-03-04T02:36:52.169Z,5.80
2023-03-04T02:39:26.158Z,5.90
2023-03-04T02:41:57.058Z,5.80
2023-03-04T02:44:27.123Z,5.80
2023-03-04T02:46:55.935Z,5.80
2023-03-04T02:49:25.402Z,6.00
2023-03-04T02:51:54.270Z,5.90
2023-03-04T02:54:24.407Z,6.00
2023-03-04T02:56:54.206Z,5.80
2023-03-04T02:59:24.099Z,5.80
2023-03-04T03:01:52.405Z,5.70
2023-03-04T03:04:21.945Z,5.80
2023-03-04T03:06:49.886Z,5.60
2023-03-04T03:09:17.858Z,5.60
2023-03-04T03:11:45.640Z,5.90
2023-03-04T03:14:13.498Z,6.00
2023-03-04T03:16:45.870Z,5.70
2023-03-04T03:19:13.621Z,5.80
2023-03-04T03:21:41.339Z,5.80
2023-03-04T03:24:09.242Z,5.90
2023-03-04T03:26:37.010Z,5.70
2023-03-04T03:29:04.722Z,5.90
2023-03-04T03:31:32.447Z,6.00
2023-03-04T03:34:01.565Z,5.90
2023-03-04T03:36:29.350Z,5.80
2023-03-04T03:38:57.049Z,5.90
2023-03-04T03:41:24.762Z,6.10
2023-03-04T03:43:52.498Z,6.00
2023-03-04T03:46:20.221Z,6.00
2023-03-04T03:48:47.933Z,5.90
2023-03-04T03:51:17.023Z,6.10
2023-03-04T03:53:44.729Z,5.80
2023-03-04T03:56:12.494Z,5.90
2023-03-04T03:58:40.177Z,6.10
2023-03-04T04:01:09.255Z,5.80
2023-03-04T04:03:37.113Z,5.90
2023-03-04T04:06:05.053Z,6.00
2023-03-04T04:08:34.234Z,6.00
2023-03-04T04:11:01.968Z,6.20
2023-03-04T04:13:29.849Z,6.30
2023-03-04T04:15:58.057Z,6.20
2023-03-04T04:18:25.853Z,6.20
2023-03-04T04:20:53.825Z,6.20
2023-03-04T04:23:21.590Z,6.10
2023-03-04T04:25:50.639Z,6.00
2023-03-04T04:28:18.336Z,5.90
2023-03-04T04:30:46.079Z,5.90
2023-03-04T04:33:13.829Z,6.00
2023-03-04T04:35:41.615Z,5.80
2023-03-04T04:38:10.002Z,5.80
2023-03-04T04:40:38.169Z,6.20
2023-03-04T04:43:07.413Z,6.00
2023-03-04T04:45:35.596Z,5.90
2023-03-04T04:48:03.322Z,5.90
2023-03-04T04:50:32.959Z,6.00
2023-03-04T04:53:00.909Z,5.70
2023-03-04T04:55:28.819Z,5.70
2023-03-04T04:57:56.539Z,5.80
2023-03-04T05:00:25.852Z,5.90
2023-03-04T05:02:53.604Z,6.00
2023-03-04T05:05:21.356Z,6.10
2023-03-04T05:07:49.084Z,6.10
2023-03-04T05:10:17.489Z,5.90
2023-03-04T05:12:45.465Z,6.00
2023-03-04T05:15:13.232Z,5.90
2023-03-04T05:17:42.287Z,5.90
2023-03-04T05:20:11.607Z,5.80
2023-03-04T05:22:39.328Z,5.90
2023-03-04T05:25:08.059Z,6.00
2023-03-04T05:27:35.916Z,6.00
2023-03-04T05:30:03.730Z,5.80
2023-03-04T05:32:31.497Z,5.90
2023-03-04T05:35:00.553Z,5.90
2023-03-04T05:37:28.262Z,5.60
2023-03-04T05:39:55.951Z,5.60
2023-03-04T05:42:23.723Z,5.70
2023-03-04T05:44:51.476Z,5.70
2023-03-04T05:47:19.218Z,5.80
2023-03-04T05:49:46.975Z,5.80
2023-03-04T05:52:16.037Z,5.80
2023-03-04T05:54:43.734Z,5.80
2023-03-04T05:57:11.673Z,5.80
2023-03-04T05:59:39.433Z,5.90
2023-03-04T06:02:07.190Z,5.90
2023-03-04T06:04:35.218Z,6.00
2023-03-04T06:07:02.927Z,6.00
2023-03-04T06:09:31.975Z,5.80
2023-03-04T06:11:59.749Z,6.00
2023-03-04T06:14:27.613Z,5.80
2023-03-04T06:16:55.392Z,5.80
2023-03-04T06:19:23.155Z,6.00
2023-03-04T06:21:50.893Z,6.00
2023-03-04T06:24:18.781Z,5.80
2023-03-04T06:26:47.848Z,5.90
2023-03-04T06:29:16.411Z,5.60
2023-03-04T06:31:44.134Z,5.70
2023-03-04T06:34:12.040Z,5.90
2023-03-04T06:36:39.759Z,5.90
2023-03-04T06:39:08.580Z,6.00
2023-03-04T06:41:36.550Z,5.90
2023-03-04T06:44:06.364Z,5.90
2023-03-04T06:46:34.868Z,5.80
2023-03-04T06:49:02.821Z,5.90
2023-03-04T06:51:30.798Z,5.70
2023-03-04T06:53:58.478Z,5.70
2023-03-04T06:56:26.353Z,5.90
2023-03-04T06:58:54.104Z,5.90
2023-03-04T07:01:24.880Z,6.00
2023-03-04T07:03:53.834Z,6.00
2023-03-04T07:06:24.240Z,5.90
2023-03-04T07:08:52.898Z,6.00
2023-03-04T07:11:22.928Z,6.20
2023-03-04T07:13:51.421Z,6.20
2023-03-04T07:16:21.559Z,6.00
2023-03-04T07:18:51.511Z,5.90
2023-03-04T07:21:19.776Z,6.10
2023-03-04T07:23:48.065Z,6.00
2023-03-04T07:26:16.167Z,6.10
2023-03-04T07:28:44.214Z,6.10
2023-03-04T07:31:14.194Z,6.20
2023-03-04T07:33:42.020Z,6.30
2023-03-04T07:36:11.190Z,6.00
2023-03-04T07:38:38.906Z,6.00
2023-03-04T07:41:06.633Z,6.10
2023-03-04T07:43:34.350Z,6.10
2023-03-04T07:46:02.759Z,5.90
2023-03-04T07:48:30.738Z,6.00
2023-03-04T07:51:09.330Z,6.20
2023-03-04T07:53:39.289Z,6.20
2023-03-04T07:56:09.025Z,6.10
2023-03-04T07:58:36.738Z,6.10
2023-03-04T08:01:10.889Z,6.10
2023-03-04T08:03:38.622Z,6.10
2023-03-04T08:06:07.934Z,6.40
2023-03-04T08:08:35.717Z,6.30
2023-03-04T08:11:07.176Z,6.30
2023-03-04T08:13:35.301Z,6.20
2023-03-04T08:16:03.965Z,6.30
2023-03-04T08:18:31.832Z,6.20
2023-03-04T08:20:59.590Z,6.20
2023-03-04T08:23:27.406Z,6.30
2023-03-04T08:25:55.226Z,6.40
2023-03-04T08:28:24.271Z,6.50
2023-03-04T08:30:54.663Z,6.40
2023-03-04T08:33:22.454Z,6.50
2023-03-04T08:35:50.236Z,6.50
2023-03-04T08:38:18.032Z,6.40
2023-03-04T08:40:45.790Z,6.30
2023-03-04T08:43:13.538Z,6.20
2023-03-04T08:45:42.746Z,6.40
2023-03-04T08:48:10.529Z,6.50
2023-03-04T08:50:38.235Z,6.60
2023-03-04T08:53:06.013Z,6.50
2023-03-04T08:55:33.781Z,6.30
2023-03-04T08:58:01.522Z,6.20
2023-03-04T09:00:29.252Z,6.30
2023-03-04T09:02:58.359Z,6.50
2023-03-04T09:05:26.096Z,6.40
2023-03-04T09:07:54.195Z,6.60
2023-03-04T09:10:22.039Z,6.70
2023-03-04T09:12:49.816Z,6.70
2023-03-04T09:15:17.615Z,6.80
2023-03-04T09:17:45.356Z,6.80
2023-03-04T09:20:14.872Z,6.90
2023-03-04T09:22:43.373Z,6.90
2023-03-04T09:25:14.708Z,6.70
2023-03-04T09:27:43.093Z,7.00
2023-03-04T09:30:12.302Z,7.10
2023-03-04T09:32:41.320Z,7.00
2023-03-04T09:35:10.034Z,6.90
2023-03-04T09:37:41.494Z,6.70
2023-03-04T09:40:17.213Z,6.60
2023-03-04T09:42:48.774Z,6.90
2023-03-04T09:45:20.600Z,6.90
2023-03-04T09:47:50.364Z,7.00
2023-03-04T09:50:20.291Z,6.90
2023-03-04T09:53:04.436Z,7.00
2023-03-04T09:55:35.654Z,7.00
2023-03-04T09:58:11.444Z,6.80
2023-03-04T10:00:43.714Z,6.90
2023-03-04T10:03:19.618Z,7.10
2023-03-04T10:05:54.157Z,7.20
2023-03-04T10:08:39.215Z,7.10
2023-03-04T10:11:13.755Z,7.10
2023-03-04T10:13:48.824Z,7.10
2023-03-04T10:16:22.470Z,7.20
2023-03-04T10:18:54.101Z,7.10
2023-03-04T10:21:27.702Z,7.10
2023-03-04T10:23:59.794Z,6.90
2023-03-04T10:26:32.955Z,7.10
2023-03-04T10:29:02.852Z,6.80
2023-03-04T10:31:36.553Z,6.80
2023-03-04T10:34:04.921Z,6.80
2023-03-04T10:36:44.938Z,6.80
2023-03-04T10:39:18.952Z,6.90
2023-03-04T10:41:55.334Z,7.00
2023-03-04T10:44:24.403Z,7.10
2023-03-04T10:46:55.745Z,7.20
2023-03-04T10:49:25.243Z,7.30
2023-03-04T10:51:57.540Z,7.20
2023-03-04T10:54:32.298Z,7.30
2023-03-04T10:57:02.211Z,7.50
2023-03-04T10:59:40.039Z,7.70
2023-03-04T11:02:21.769Z,7.80
2023-03-04T11:04:55.085Z,7.40
2023-03-04T11:07:24.605Z,7.20
2023-03-04T11:09:54.654Z,7.10
2023-03-04T11:12:34.135Z,6.90
2023-03-04T11:15:03.489Z,6.90
2023-03-04T11:17:43.151Z,7.10
2023-03-04T11:20:29.206Z,7.10
2023-03-04T11:23:00.531Z,6.90
2023-03-04T11:25:34.295Z,7.10
2023-03-04T11:28:07.794Z,7.30
2023-03-04T11:30:42.281Z,7.50
2023-03-04T11:33:21.831Z,7.30
2023-03-04T11:35:59.997Z,7.20
2023-03-04T11:38:32.810Z,7.20
2023-03-04T11:41:06.987Z,7.30
2023-03-04T11:43:37.435Z,7.30
2023-03-04T11:46:26.634Z,7.40
2023-03-04T11:49:06.251Z,7.60
2023-03-04T11:51:40.617Z,7.80
2023-03-04T11:54:21.871Z,7.70
2023-03-04T11:56:54.161Z,8.00
2023-03-04T11:59:43.808Z,8.00
2023-03-04T12:02:18.315Z,7.80
2023-03-04T12:05:11.461Z,7.90
2023-03-04T12:08:13.964Z,8.00
2023-03-04T12:10:48.002Z,8.20
2023-03-04T12:13:51.221Z,7.80
2023-03-04T12:16:30.497Z,8.00
2023-03-04T12:19:17.348Z,8.00
2023-03-04T12:22:04.133Z,8.20
2023-03-04T12:24:53.063Z,8.30
2023-03-04T12:27:28.694Z,8.10
2023-03-04T12:30:02.301Z,8.10
2023-03-04T12:32:40.994Z,8.10
2023-03-04T12:35:36.376Z,8.00
2023-03-04T12:38:18.319Z,8.00
2023-03-04T12:40:53.037Z,8.40
2023-03-04T12:43:41.525Z,8.50
2023-03-04T12:46:22.495Z,8.50
2023-03-04T12:49:04.534Z,8.20
2023-03-04T12:51:37.072Z,8.00
2023-03-04T12:54:17.779Z,8.00
2023-03-04T12:56:51.324Z,8.20
2023-03-04T12:59:21.879Z,8.30
2023-03-04T13:01:57.625Z,8.20
2023-03-04T13:04:36.347Z,7.90
2023-03-04T13:07:14.078Z,8.00
2023-03-04T13:09:48.439Z,8.20
2023-03-04T13:12:19.725Z,8.00
2023-03-04T13:15:29.490Z,8.10
2023-03-04T13:17:59.162Z,8.10
2023-03-04T13:20:39.656Z,8.00
2023-03-04T13:23:27.032Z,8.10
2023-03-04T13:26:18.935Z,8.30
2023-03-04T13:28:46.916Z,8.50
2023-03-04T13:31:27.559Z,8.70
2023-03-04T13:34:01.553Z,8.90
2023-03-04T13:36:47.699Z,9.30
2023-03-04T13:39:34.145Z,9.10
2023-03-04T13:42:02.908Z,8.90
2023-03-04T13:44:58.414Z,8.40
2023-03-04T13:47:34.865Z,8.40
2023-03-04T13:50:38.985Z,8.20
2023-03-04T13:53:33.899Z,8.20
2023-03-04T13:56:12.899Z,8.00
2023-03-04T13:58:42.031Z,8.00
2023-03-04T14:01:25.548Z,8.10
2023-03-04T14:03:53.364Z,8.10
2023-03-04T14:06:23.474Z,7.80
2023-03-04T14:08:53.522Z,8.00
2023-03-04T14:11:28.825Z,8.30
2023-03-04T14:13:58.947Z,8.60
2023-03-04T14:16:28.975Z,8.50
2023-03-04T14:18:59.577Z,8.60
2023-03-04T14:21:27.577Z,8.80
2023-03-04T14:24:09.000Z,8.60
2023-03-04T14:26:36.737Z,8.20
2023-03-04T14:29:19.865Z,8.50
2023-03-04T14:31:47.726Z,8.70
2023-03-04T14:34:23.767Z,8.60
2023-03-04T14:36:51.639Z,8.50
2023-03-04T14:39:23.678Z,8.30
2023-03-04T14:41:53.061Z,8.30
2023-03-04T14:44:29.954Z,8.00
2023-03-04T14:47:08.044Z,8.00
2023-03-04T14:49:38.422Z,7.70
2023-03-04T14:52:07.373Z,7.80
2023-03-04T14:54:38.343Z,7.80
2023-03-04T14:57:25.999Z,7.80
2023-03-04T14:59:54.667Z,7.80
2023-03-04T15:02:31.107Z,7.70
2023-03-04T15:05:01.550Z,7.80
2023-03-04T15:07:34.450Z,7.90
2023-03-04T15:10:05.859Z,7.90
2023-03-04T15:12:36.102Z,8.00
2023-03-04T15:15:06.549Z,8.10
2023-03-04T15:17:38.641Z,8.00
2023-03-04T15:20:27.192Z,8.00
2023-03-04T15:23:00.698Z,8.00
2023-03-04T15:25:30.403Z,8.20
2023-03-04T15:27:59.173Z,8.20
2023-03-04T15:30:30.265Z,8.10
2023-03-04T15:32:59.169Z,7.90
2023-03-04T15:35:30.753Z,7.80
2023-03-04T15:37:59.191Z,7.70
2023-03-04T15:40:32.992Z,7.70
2023-03-04T15:43:03.312Z,7.90
2023-03-04T15:45:35.938Z,8.00
2023-03-04T15:48:07.810Z,7.80
2023-03-04T15:50:38.173Z,7.90
2023-03-04T15:53:09.143Z,8.10
2023-03-04T15:55:38.370Z,7.90
2023-03-04T15:58:07.265Z,7.90
2023-03-04T16:00:35.105Z,7.80
2023-03-04T16:03:02.837Z,7.70
2023-03-04T16:05:30.666Z,7.50
2023-03-04T16:07:58.430Z,7.40
2023-03-04T16:10:28.067Z,7.40
2023-03-04T16:12:57.614Z,7.50
2023-03-04T16:15:27.169Z,7.50
2023-03-04T16:17:55.299Z,7.60
2023-03-04T16:20:25.550Z,7.40
2023-03-04T16:22:55.993Z,7.40
2023-03-04T16:25:25.187Z,7.20
2023-03-04T16:27:53.926Z,7.20
2023-03-04T16:30:25.106Z,7.10
2023-03-04T16:32:52.854Z,6.90
2023-03-04T16:35:25.082Z,7.10
2023-03-04T16:37:53.539Z,6.80
2023-03-04T16:40:24.780Z,7.20
2023-03-04T16:42:52.635Z,7.20
2023-03-04T16:45:24.346Z,7.10
2023-03-04T16:47:52.386Z,7.10
2023-03-04T16:50:24.870Z,6.90
2023-03-04T16:52:52.631Z,6.70
2023-03-04T16:55:22.818Z,6.60
2023-03-04T16:57:50.590Z,6.50
2023-03-04T17:00:20.421Z,6.50
2023-03-04T17:02:55.633Z,6.40
2023-03-04T17:05:25.127Z,6.40
2023-03-04T17:07:52.854Z,6.30
2023-03-04T17:10:21.225Z,6.20
2023-03-04T17:12:49.753Z,6.20
2023-03-04T17:15:17.846Z,6.10
2023-03-04T17:17:46.034Z,6.10
2023-03-04T17:20:17.585Z,5.90
2023-03-04T17:22:45.729Z,5.70
2023-03-04T17:25:14.547Z,6.10
2023-03-04T17:27:42.781Z,6.10
2023-03-04T17:30:12.301Z,6.30
2023-03-04T17:32:43.130Z,6.30
2023-03-04T17:35:12.059Z,6.40
2023-03-04T17:37:41.519Z,6.30
2023-03-04T17:40:14.081Z,6.50
2023-03-04T17:42:42.092Z,6.30
2023-03-04T17:45:11.058Z,6.40
2023-03-04T17:47:39.191Z,6.20
2023-03-04T17:50:08.652Z,6.30
2023-03-04T17:52:38.909Z,6.10
2023-03-04T17:55:09.036Z,6.00
2023-03-04T17:57:38.013Z,6.30
2023-03-04T18:00:07.338Z,6.40
2023-03-04T18:02:35.107Z,6.20
2023-03-04T18:05:06.637Z,6.20
2023-03-04T18:07:34.399Z,6.30
2023-03-04T18:10:09.071Z,6.30
2023-03-04T18:12:38.148Z,6.30
2023-03-04T18:15:06.869Z,6.20
2023-03-04T18:17:34.588Z,6.30
2023-03-04T18:20:02.823Z,6.50
2023-03-04T18:22:31.398Z,6.50
2023-03-04T18:24:59.202Z,6.40
2023-03-04T18:27:27.951Z,6.40
2023-03-04T18:29:58.686Z,6.30
2023-03-04T18:32:26.607Z,6.10
2023-03-04T18:34:54.378Z,6.00
2023-03-04T18:37:22.109Z,5.90
2023-03-04T18:39:49.908Z,6.00
2023-03-04T18:42:17.666Z,6.30
2023-03-04T18:44:45.404Z,6.30
2023-03-04T18:47:14.864Z,6.10
2023-03-04T18:49:44.597Z,5.90
2023-03-04T18:52:12.350Z,6.10
2023-03-04T18:54:40.168Z,6.20
2023-03-04T18:57:10.374Z,6.30
2023-03-04T18:59:42.151Z,6.30
2023-03-04T19:02:19.952Z,6.20
2023-03-04T19:04:48.851Z,6.20
2023-03-04T19:07:16.608Z,6.20
2023-03-04T19:09:44.465Z,6.30
2023-03-04T19:12:12.237Z,6.40
2023-03-04T19:14:40.323Z,6.40
2023-03-04T19:17:08.034Z,6.20
2023-03-04T19:19:37.308Z,6.10
2023-03-04T19:22:06.726Z,6.20
2023-03-04T19:24:34.445Z,6.20
2023-03-04T19:27:02.723Z,6.00
2023-03-04T19:29:30.754Z,6.30
2023-03-04T19:31:58.917Z,6.40
2023-03-04T19:34:26.761Z,6.40
2023-03-04T19:36:55.808Z,6.30
2023-03-04T19:39:23.886Z,6.10
2023-03-04T19:41:51.700Z,5.90
2023-03-04T19:44:19.458Z,6.00
2023-03-04T19:46:47.303Z,5.80
2023-03-04T19:49:15.022Z,5.50
2023-03-04T19:51:43.558Z,5.60
2023-03-04T19:54:12.915Z,5.80
2023-03-04T19:56:40.655Z,5.70
2023-03-04T19:59:08.382Z,6.00
2023-03-04T20:01:38.508Z,6.00
2023-03-04T20:04:09.091Z,5.90
2023-03-04T20:06:37.832Z,6.00
2023-03-04T20:09:05.873Z,6.00
2023-03-04T20:11:44.107Z,5.90
2023-03-04T20:14:18.803Z,5.90
2023-03-04T20:16:46.547Z,5.80
2023-03-04T20:19:14.345Z,5.90
2023-03-04T20:21:42.188Z,5.80
2023-03-04T20:24:10.280Z,5.40
2023-03-04T20:26:40.319Z,5.00
2023-03-04T20:29:10.894Z,5.10
2023-03-04T20:31:39.897Z,5.10
2023-03-04T20:34:09.031Z,5.30
2023-03-04T20:36:38.444Z,5.00
2023-03-04T20:39:21.422Z,5.00
2023-03-04T20:41:55.056Z,5.10
2023-03-04T20:44:23.144Z,5.00
2023-03-04T20:46:51.316Z,5.20
2023-03-04T20:49:23.295Z,5.30
2023-03-04T20:51:52.239Z,5.30
2023-03-04T20:54:20.871Z,5.30
2023-03-04T20:56:52.002Z,5.40
2023-03-04T20:59:21.294Z,5.20
2023-03-04T21:01:49.527Z,5.30
2023-03-04T21:04:20.055Z,5.40
2023-03-04T21:06:48.380Z,5.10
2023-03-04T21:09:18.270Z,5.00
2023-03-04T21:11:46.388Z,4.90
2023-03-04T21:14:16.510Z,5.10
2023-03-04T21:16:46.019Z,5.20
2023-03-04T21:19:17.963Z,5.30
2023-03-04T21:21:46.917Z,5.40
2023-03-04T21:24:16.368Z,5.30
2023-03-04T21:26:45.643Z,5.30
2023-03-04T21:29:13.714Z,5.20
2023-03-04T21:31:44.048Z,5.20
2023-03-04T21:34:17.063Z,5.40
2023-03-04T21:36:45.107Z,5.20
2023-03-04T21:39:17.872Z,5.10
2023-03-04T21:41:46.099Z,5.10
2023-03-04T21:44:22.970Z,5.30
2023-03-04T21:46:59.363Z,5.40
2023-03-04T21:49:29.337Z,5.40
2023-03-04T21:51:57.178Z,5.20
2023-03-04T21:54:25.405Z,5.10
2023-03-04T21:56:53.140Z,5.10
2023-03-04T21:59:24.179Z,5.00
2023-03-04T22:01:52.297Z,5.10
2023-03-04T22:04:20.223Z,5.30
2023-03-04T22:06:50.209Z,5.40
2023-03-04T22:09:17.925Z,5.20
2023-03-04T22:11:45.852Z,4.80
2023-03-04T22:14:14.295Z,4.80
2023-03-04T22:16:54.423Z,5.10
2023-03-04T22:19:23.392Z,5.00
2023-03-04T22:21:53.420Z,5.20
2023-03-04T22:24:21.336Z,5.00
2023-03-04T22:26:50.460Z,5.20
2023-03-04T22:29:18.901Z,5.10
2023-03-04T22:31:49.740Z,5.10
2023-03-04T22:34:18.389Z,5.10
2023-03-04T22:36:47.222Z,4.90
2023-03-04T22:39:19.902Z,4.80
2023-03-04T22:41:47.849Z,5.10
2023-03-04T22:44:17.604Z,5.40
2023-03-04T22:46:45.334Z,5.20
2023-03-04T22:49:15.917Z,5.30
2023-03-04T22:51:45.707Z,5.10
2023-03-04T22:54:14.731Z,5.10
2023-03-04T22:56:44.247Z,5.10
2023-03-04T22:59:12.139Z,5.20
2023-03-04T23:01:40.341Z,5.10
2023-03-04T23:04:08.329Z,5.20
2023-03-04T23:06:37.550Z,5.10
2023-03-04T23:09:05.422Z,5.00
2023-03-04T23:11:36.155Z,5.10
2023-03-04T23:14:07.810Z,5.00
2023-03-04T23:16:39.203Z,5.10
2023-03-04T23:19:08.252Z,5.20
2023-03-04T23:21:36.830Z,5.40
2023-03-04T23:24:06.788Z,5.40
2023-03-04T23:26:38.606Z,5.40
2023-03-04T23:29:10.372Z,5.40
2023-03-04T23:31:38.239Z,5.10
2023-03-04T23:34:07.317Z,4.80
2023-03-04T23:36:37.353Z,4.80
2023-03-04T23:39:05.767Z,4.80
2023-03-04T23:41:34.930Z,5.00
2023-03-04T23:44:03.141Z,5.20
2023-03-04T23:46:32.327Z,5.30
2023-03-04T23:49:00.445Z,5.20
2023-03-04T23:51:30.161Z,5.20
2023-03-04T23:53:58.802Z,5.10
2023-03-04T23:56:28.841Z,4.90
2023-03-04T23:58:57.088Z,4.90
